sensor_id;sensor_type;location;lat;lon;timestamp;temperature;humidity
4578;DHT22;2301;47.354;8.528;2023-08-20T00:01:26;26.10;64.80
4578;DHT22;2301;47.354;8.528;2023-08-20T00:03:54;26.00;64.90
4578;DHT22;2301;47.354;8.528;2023-08-20T00:06:23;26.00;65.00
4578;DHT22;2301;47.354;8.528;2023-08-20T00:08:50;26.00;65.20
4578;DHT22;2301;47.354;8.528;2023-08-20T00:11:17;25.90;65.30
4578;DHT22;2301;47.354;8.528;2023-08-20T00:13:46;25.90;65.50
4578;DHT22;2301;47.354;8.528;2023-08-20T00:16:13;25.80;65.50
4578;DHT22;2301;47.354;8.528;2023-08-20T00:18:41;25.80;65.90
4578;DHT22;2301;47.354;8.528;2023-08-20T00:21:08;25.80;66.00
4578;DHT22;2301;47.354;8.528;2023-08-20T00:23:36;25.80;66.10
4578;DHT22;2301;47.354;8.528;2023-08-20T00:26:03;25.70;66.20
4578;DHT22;2301;47.354;8.528;2023-08-20T00:28:30;25.60;66.20
4578;DHT22;2301;47.354;8.528;2023-08-20T00:31:00;25.60;66.20
4578;DHT22;2301;47.354;8.528;2023-08-20T00:33:28;25.60;66.20
4578;DHT22;2301;47.354;8.528;2023-08-20T00:35:55;25.60;66.20
4578;DHT22;2301;47.354;8.528;2023-08-20T00:38:22;25.50;66.30
4578;DHT22;2301;47.354;8.528;2023-08-20T00:40:49;25.50;66.30
4578;DHT22;2301;47.354;8.528;2023-08-20T00:43:15;25.50;66.40
4578;DHT22;2301;47.354;8.528;2023-08-20T00:45:42;25.50;66.70
4578;DHT22;2301;47.354;8.528;2023-08-20T00:48:11;25.40;66.80
4578;DHT22;2301;47.354;8.528;2023-08-20T00:50:39;25.40;67.10
4578;DHT22;2301;47.354;8.528;2023-08-20T00:53:07;25.30;67.20
4578;DHT22;2301;47.354;8.528;2023-08-20T00:55:36;25.30;67.30
4578;DHT22;2301;47.354;8.528;2023-08-20T00:58:05;25.30;67.60
4578;DHT22;2301;47.354;8.528;2023-08-20T01:00:35;25.20;67.60
4578;DHT22;2301;47.354;8.528;2023-08-20T01:03:05;25.20;67.70
4578;DHT22;2301;47.354;8.528;2023-08-20T01:05:42;25.20;68.00
4578;DHT22;2301;47.354;8.528;2023-08-20T01:08:23;25.10;68.10
4578;DHT22;2301;47.354;8.528;2023-08-20T01:10:58;25.10;68.30
4578;DHT22;2301;47.354;8.528;2023-08-20T01:13:30;25.10;68.40
4578;DHT22;2301;47.354;8.528;2023-08-20T01:15:59;25.10;68.50
4578;DHT22;2301;47.354;8.528;2023-08-20T01:18:27;25.10;68.70
4578;DHT22;2301;47.354;8.528;2023-08-20T01:21:01;25.00;68.90
4578;DHT22;2301;47.354;8.528;2023-08-20T01:23:43;25.00;69.20
4578;DHT22;2301;47.354;8.528;2023-08-20T01:26:45;25.00;69.40
4578;DHT22;2301;47.354;8.528;2023-08-20T01:29:17;24.90;69.60
4578;DHT22;2301;47.354;8.528;2023-08-20T01:31:44;24.80;69.70
4578;DHT22;2301;47.354;8.528;2023-08-20T01:34:12;24.80;69.80
4578;DHT22;2301;47.354;8.528;2023-08-20T01:36:40;24.80;69.80
4578;DHT22;2301;47.354;8.528;2023-08-20T01:39:06;24.80;69.80
4578;DHT22;2301;47.354;8.528;2023-08-20T01:41:33;24.70;70.00
4578;DHT22;2301;47.354;8.528;2023-08-20T01:44:00;24.70;70.10
4578;DHT22;2301;47.354;8.528;2023-08-20T01:46:31;24.80;70.20
4578;DHT22;2301;47.354;8.528;2023-08-20T01:49:00;24.80;70.20
4578;DHT22;2301;47.354;8.528;2023-08-20T01:51:29;24.70;70.20
4578;DHT22;2301;47.354;8.528;2023-08-20T01:53:59;24.70;70.30
4578;DHT22;2301;47.354;8.528;2023-08-20T01:56:29;24.70;70.60
4578;DHT22;2301;47.354;8.528;2023-08-20T01:58:59;24.70;70.60
4578;DHT22;2301;47.354;8.528;2023-08-20T02:01:30;24.60;70.80
4578;DHT22;2301;47.354;8.528;2023-08-20T02:03:59;24.60;70.90
4578;DHT22;2301;47.354;8.528;2023-08-20T02:06:29;24.60;71.00
4578;DHT22;2301;47.354;8.528;2023-08-20T02:08:58;24.60;71.20
4578;DHT22;2301;47.354;8.528;2023-08-20T02:11:28;24.50;71.30
4578;DHT22;2301;47.354;8.528;2023-08-20T02:14:02;24.50;71.40
4578;DHT22;2301;47.354;8.528;2023-08-20T02:16:33;24.40;71.70
4578;DHT22;2301;47.354;8.528;2023-08-20T02:19:04;24.40;72.60
4578;DHT22;2301;47.354;8.528;2023-08-20T02:21:34;24.40;72.00
4578;DHT22;2301;47.354;8.528;2023-08-20T02:24:04;24.30;71.90
4578;DHT22;2301;47.354;8.528;2023-08-20T02:26:33;24.30;72.00
4578;DHT22;2301;47.354;8.528;2023-08-20T02:29:03;24.30;72.20
4578;DHT22;2301;47.354;8.528;2023-08-20T02:31:35;24.30;72.50
4578;DHT22;2301;47.354;8.528;2023-08-20T02:34:05;24.30;72.60
4578;DHT22;2301;47.354;8.528;2023-08-20T02:36:34;24.20;72.60
4578;DHT22;2301;47.354;8.528;2023-08-20T02:39:04;24.20;72.90
4578;DHT22;2301;47.354;8.528;2023-08-20T02:41:35;24.20;73.20
4578;DHT22;2301;47.354;8.528;2023-08-20T02:44:04;24.20;73.40
4578;DHT22;2301;47.354;8.528;2023-08-20T02:46:35;24.10;73.40
4578;DHT22;2301;47.354;8.528;2023-08-20T02:49:05;24.10;73.50
4578;DHT22;2301;47.354;8.528;2023-08-20T02:51:35;24.10;73.60
4578;DHT22;2301;47.354;8.528;2023-08-20T02:54:05;24.10;73.70
4578;DHT22;2301;47.354;8.528;2023-08-20T02:56:35;24.10;74.60
4578;DHT22;2301;47.354;8.528;2023-08-20T02:59:05;24.10;74.20
4578;DHT22;2301;47.354;8.528;2023-08-20T03:01:36;24.00;74.30
4578;DHT22;2301;47.354;8.528;2023-08-20T03:04:05;24.00;74.40
4578;DHT22;2301;47.354;8.528;2023-08-20T03:06:32;24.00;74.60
4578;DHT22;2301;47.354;8.528;2023-08-20T03:08:59;23.90;74.40
4578;DHT22;2301;47.354;8.528;2023-08-20T03:11:26;23.90;74.60
4578;DHT22;2301;47.354;8.528;2023-08-20T03:13:53;23.90;74.60
4578;DHT22;2301;47.354;8.528;2023-08-20T03:16:20;23.90;74.80
4578;DHT22;2301;47.354;8.528;2023-08-20T03:18:48;23.90;75.00
4578;DHT22;2301;47.354;8.528;2023-08-20T03:21:16;23.90;75.30
4578;DHT22;2301;47.354;8.528;2023-08-20T03:23:45;23.80;75.40
4578;DHT22;2301;47.354;8.528;2023-08-20T03:26:15;23.80;75.50
4578;DHT22;2301;47.354;8.528;2023-08-20T03:28:45;23.80;75.70
4578;DHT22;2301;47.354;8.528;2023-08-20T03:31:15;23.80;76.00
4578;DHT22;2301;47.354;8.528;2023-08-20T03:33:43;23.70;76.00
4578;DHT22;2301;47.354;8.528;2023-08-20T03:36:12;23.70;76.30
4578;DHT22;2301;47.354;8.528;2023-08-20T03:38:39;23.70;76.40
4578;DHT22;2301;47.354;8.528;2023-08-20T03:41:06;23.60;76.50
4578;DHT22;2301;47.354;8.528;2023-08-20T03:43:33;23.60;76.60
4578;DHT22;2301;47.354;8.528;2023-08-20T03:46:00;23.60;76.80
4578;DHT22;2301;47.354;8.528;2023-08-20T03:48:27;23.60;76.90
4578;DHT22;2301;47.354;8.528;2023-08-20T03:50:54;23.60;77.10
4578;DHT22;2301;47.354;8.528;2023-08-20T03:53:24;23.50;77.10
4578;DHT22;2301;47.354;8.528;2023-08-20T03:55:51;23.50;77.20
4578;DHT22;2301;47.354;8.528;2023-08-20T03:58:17;23.50;77.50
4578;DHT22;2301;47.354;8.528;2023-08-20T04:00:44;23.50;77.60
4578;DHT22;2301;47.354;8.528;2023-08-20T04:03:11;23.50;77.70
4578;DHT22;2301;47.354;8.528;2023-08-20T04:05:39;23.50;77.90
4578;DHT22;2301;47.354;8.528;2023-08-20T04:08:06;23.50;78.00
4578;DHT22;2301;47.354;8.528;2023-08-20T04:10:35;23.40;78.10
4578;DHT22;2301;47.354;8.528;2023-08-20T04:13:02;23.40;78.20
4578;DHT22;2301;47.354;8.528;2023-08-20T04:15:28;23.40;78.10
4578;DHT22;2301;47.354;8.528;2023-08-20T04:17:55;23.40;78.30
4578;DHT22;2301;47.354;8.528;2023-08-20T04:20:22;23.30;78.30
4578;DHT22;2301;47.354;8.528;2023-08-20T04:22:49;23.30;78.30
4578;DHT22;2301;47.354;8.528;2023-08-20T04:25:16;23.30;78.30
4578;DHT22;2301;47.354;8.528;2023-08-20T04:27:45;23.30;78.50
4578;DHT22;2301;47.354;8.528;2023-08-20T04:30:12;23.30;78.60
4578;DHT22;2301;47.354;8.528;2023-08-20T04:32:39;23.30;78.90
4578;DHT22;2301;47.354;8.528;2023-08-20T04:35:06;23.20;78.90
4578;DHT22;2301;47.354;8.528;2023-08-20T04:37:33;23.20;79.00
4578;DHT22;2301;47.354;8.528;2023-08-20T04:40:00;23.20;78.90
4578;DHT22;2301;47.354;8.528;2023-08-20T04:42:30;23.10;78.90
4578;DHT22;2301;47.354;8.528;2023-08-20T04:44:58;23.20;79.20
4578;DHT22;2301;47.354;8.528;2023-08-20T04:47:25;23.20;79.30
4578;DHT22;2301;47.354;8.528;2023-08-20T04:49:52;23.20;79.40
4578;DHT22;2301;47.354;8.528;2023-08-20T04:52:19;23.20;79.50
4578;DHT22;2301;47.354;8.528;2023-08-20T04:54:46;23.20;79.60
4578;DHT22;2301;47.354;8.528;2023-08-20T04:57:13;23.20;79.70
4578;DHT22;2301;47.354;8.528;2023-08-20T04:59:41;23.20;79.70
4578;DHT22;2301;47.354;8.528;2023-08-20T05:02:12;23.20;79.70
4578;DHT22;2301;47.354;8.528;2023-08-20T05:04:39;23.20;79.70
4578;DHT22;2301;47.354;8.528;2023-08-20T05:07:06;23.10;79.60
4578;DHT22;2301;47.354;8.528;2023-08-20T05:09:33;23.10;79.70
4578;DHT22;2301;47.354;8.528;2023-08-20T05:12:00;23.10;79.80
4578;DHT22;2301;47.354;8.528;2023-08-20T05:14:28;23.10;79.90
4578;DHT22;2301;47.354;8.528;2023-08-20T05:16:55;23.20;80.00
4578;DHT22;2301;47.354;8.528;2023-08-20T05:19:23;23.10;79.90
4578;DHT22;2301;47.354;8.528;2023-08-20T05:21:50;23.20;80.20
4578;DHT22;2301;47.354;8.528;2023-08-20T05:24:18;23.20;80.20
4578;DHT22;2301;47.354;8.528;2023-08-20T05:26:45;23.30;80.30
4578;DHT22;2301;47.354;8.528;2023-08-20T05:29:12;23.30;80.40
4578;DHT22;2301;47.354;8.528;2023-08-20T05:31:38;23.30;80.50
4578;DHT22;2301;47.354;8.528;2023-08-20T05:34:05;23.30;80.30
4578;DHT22;2301;47.354;8.528;2023-08-20T05:36:34;23.40;81.00
4578;DHT22;2301;47.354;8.528;2023-08-20T05:39:00;23.40;80.40
4578;DHT22;2301;47.354;8.528;2023-08-20T05:41:27;23.40;80.30
4578;DHT22;2301;47.354;8.528;2023-08-20T05:43:54;23.50;80.50
4578;DHT22;2301;47.354;8.528;2023-08-20T05:46:21;23.50;80.70
4578;DHT22;2301;47.354;8.528;2023-08-20T05:48:48;23.60;81.30
4578;DHT22;2301;47.354;8.528;2023-08-20T05:51:15;23.70;81.60
4578;DHT22;2301;47.354;8.528;2023-08-20T05:53:43;23.70;81.60
4578;DHT22;2301;47.354;8.528;2023-08-20T05:56:10;23.80;82.00
4578;DHT22;2301;47.354;8.528;2023-08-20T05:58:37;23.90;82.00
4578;DHT22;2301;47.354;8.528;2023-08-20T06:01:04;23.90;81.80
4578;DHT22;2301;47.354;8.528;2023-08-20T06:03:30;24.00;82.10
4578;DHT22;2301;47.354;8.528;2023-08-20T06:05:57;24.00;81.80
4578;DHT22;2301;47.354;8.528;2023-08-20T06:08:24;24.10;81.80
4578;DHT22;2301;47.354;8.528;2023-08-20T06:10:53;24.10;82.10
4578;DHT22;2301;47.354;8.528;2023-08-20T06:13:21;24.20;82.30
4578;DHT22;2301;47.354;8.528;2023-08-20T06:15:50;24.20;82.80
4578;DHT22;2301;47.354;8.528;2023-08-20T06:18:19;24.20;83.10
4578;DHT22;2301;47.354;8.528;2023-08-20T06:20:45;24.20;82.50
4578;DHT22;2301;47.354;8.528;2023-08-20T06:23:12;24.30;82.10
4578;DHT22;2301;47.354;8.528;2023-08-20T06:25:39;24.30;81.80
4578;DHT22;2301;47.354;8.528;2023-08-20T06:28:08;24.30;82.20
4578;DHT22;2301;47.354;8.528;2023-08-20T06:30:35;24.40;82.30
4578;DHT22;2301;47.354;8.528;2023-08-20T06:33:03;24.50;82.90
4578;DHT22;2301;47.354;8.528;2023-08-20T06:35:30;24.70;83.40
4578;DHT22;2301;47.354;8.528;2023-08-20T06:37:56;24.80;83.60
4578;DHT22;2301;47.354;8.528;2023-08-20T06:40:23;24.90;83.40
4578;DHT22;2301;47.354;8.528;2023-08-20T06:42:50;25.10;82.60
4578;DHT22;2301;47.354;8.528;2023-08-20T06:45:19;25.20;82.80
4578;DHT22;2301;47.354;8.528;2023-08-20T06:47:46;25.50;82.50
4578;DHT22;2301;47.354;8.528;2023-08-20T06:50:13;25.60;82.00
4578;DHT22;2301;47.354;8.528;2023-08-20T06:52:40;25.80;81.20
4578;DHT22;2301;47.354;8.528;2023-08-20T06:55:07;26.00;80.50
4578;DHT22;2301;47.354;8.528;2023-08-20T06:57:35;26.20;80.20
4578;DHT22;2301;47.354;8.528;2023-08-20T07:00:06;26.30;79.70
4578;DHT22;2301;47.354;8.528;2023-08-20T07:02:37;26.50;78.80
4578;DHT22;2301;47.354;8.528;2023-08-20T07:05:06;26.70;77.80
4578;DHT22;2301;47.354;8.528;2023-08-20T07:07:36;26.90;77.60
4578;DHT22;2301;47.354;8.528;2023-08-20T07:10:06;27.10;76.80
4578;DHT22;2301;47.354;8.528;2023-08-20T07:12:37;27.20;75.80
4578;DHT22;2301;47.354;8.528;2023-08-20T07:15:06;27.40;75.00
4578;DHT22;2301;47.354;8.528;2023-08-20T07:17:34;27.60;74.50
4578;DHT22;2301;47.354;8.528;2023-08-20T07:20:01;27.80;73.30
4578;DHT22;2301;47.354;8.528;2023-08-20T07:22:29;28.00;72.80
4578;DHT22;2301;47.354;8.528;2023-08-20T07:24:56;28.20;71.50
4578;DHT22;2301;47.354;8.528;2023-08-20T07:27:23;28.40;70.50
4578;DHT22;2301;47.354;8.528;2023-08-20T07:29:50;28.60;68.90
4578;DHT22;2301;47.354;8.528;2023-08-20T07:32:17;28.80;68.00
4578;DHT22;2301;47.354;8.528;2023-08-20T07:34:45;29.00;67.00
4578;DHT22;2301;47.354;8.528;2023-08-20T07:37:12;29.20;66.20
4578;DHT22;2301;47.354;8.528;2023-08-20T07:39:39;29.50;65.20
4578;DHT22;2301;47.354;8.528;2023-08-20T07:42:06;29.70;64.20
4578;DHT22;2301;47.354;8.528;2023-08-20T07:44:35;29.80;63.10
4578;DHT22;2301;47.354;8.528;2023-08-20T07:47:05;30.00;62.50
4578;DHT22;2301;47.354;8.528;2023-08-20T07:49:34;30.10;61.90
4578;DHT22;2301;47.354;8.528;2023-08-20T07:52:06;30.20;61.30
4578;DHT22;2301;47.354;8.528;2023-08-20T07:54:36;30.40;60.60
4578;DHT22;2301;47.354;8.528;2023-08-20T07:57:06;30.70;60.70
4578;DHT22;2301;47.354;8.528;2023-08-20T07:59:34;30.90;60.00
4578;DHT22;2301;47.354;8.528;2023-08-20T08:02:05;31.20;59.50
4578;DHT22;2301;47.354;8.528;2023-08-20T08:04:35;31.50;58.20
4578;DHT22;2301;47.354;8.528;2023-08-20T08:07:07;31.70;56.80
4578;DHT22;2301;47.354;8.528;2023-08-20T08:09:38;32.00;56.50
4578;DHT22;2301;47.354;8.528;2023-08-20T08:12:08;32.20;56.10
4578;DHT22;2301;47.354;8.528;2023-08-20T08:14:37;32.40;55.60
4578;DHT22;2301;47.354;8.528;2023-08-20T08:17:07;32.70;55.30
4578;DHT22;2301;47.354;8.528;2023-08-20T08:19:36;33.00;55.30
4578;DHT22;2301;47.354;8.528;2023-08-20T08:22:07;33.40;53.30
4578;DHT22;2301;47.354;8.528;2023-08-20T08:24:34;33.80;52.80
4578;DHT22;2301;47.354;8.528;2023-08-20T08:27:01;34.20;50.70
4578;DHT22;2301;47.354;8.528;2023-08-20T08:29:28;34.50;50.50
4578;DHT22;2301;47.354;8.528;2023-08-20T08:31:55;34.60;50.20
4578;DHT22;2301;47.354;8.528;2023-08-20T08:34:22;34.70;49.20
4578;DHT22;2301;47.354;8.528;2023-08-20T08:36:49;34.80;48.80
4578;DHT22;2301;47.354;8.528;2023-08-20T08:39:17;34.80;48.10
4578;DHT22;2301;47.354;8.528;2023-08-20T08:41:49;34.90;47.60
4578;DHT22;2301;47.354;8.528;2023-08-20T08:44:17;35.60;47.00
4578;DHT22;2301;47.354;8.528;2023-08-20T08:46:44;36.40;45.70
4578;DHT22;2301;47.354;8.528;2023-08-20T08:49:13;37.00;45.00
4578;DHT22;2301;47.354;8.528;2023-08-20T08:51:42;37.20;44.60
4578;DHT22;2301;47.354;8.528;2023-08-20T08:54:12;37.20;44.40
4578;DHT22;2301;47.354;8.528;2023-08-20T08:56:41;37.10;45.10
4578;DHT22;2301;47.354;8.528;2023-08-20T08:59:08;36.90;44.10
4578;DHT22;2301;47.354;8.528;2023-08-20T09:01:38;36.80;44.40
4578;DHT22;2301;47.354;8.528;2023-08-20T09:04:05;36.70;43.80
4578;DHT22;2301;47.354;8.528;2023-08-20T09:06:44;36.70;44.10
4578;DHT22;2301;47.354;8.528;2023-08-20T09:09:12;36.80;44.80
4578;DHT22;2301;47.354;8.528;2023-08-20T09:11:44;37.10;44.90
4578;DHT22;2301;47.354;8.528;2023-08-20T09:14:22;37.50;44.20
4578;DHT22;2301;47.354;8.528;2023-08-20T09:16:56;38.20;43.10
4578;DHT22;2301;47.354;8.528;2023-08-20T09:19:30;38.60;42.10
4578;DHT22;2301;47.354;8.528;2023-08-20T09:22:04;38.90;41.80
4578;DHT22;2301;47.354;8.528;2023-08-20T09:24:38;39.00;41.30
4578;DHT22;2301;47.354;8.528;2023-08-20T09:27:06;39.00;40.40
4578;DHT22;2301;47.354;8.528;2023-08-20T09:29:34;38.90;40.10
4578;DHT22;2301;47.354;8.528;2023-08-20T09:32:14;39.00;40.00
4578;DHT22;2301;47.354;8.528;2023-08-20T09:34:41;39.20;40.40
4578;DHT22;2301;47.354;8.528;2023-08-20T09:37:08;39.30;39.10
4578;DHT22;2301;47.354;8.528;2023-08-20T09:39:36;39.30;39.30
4578;DHT22;2301;47.354;8.528;2023-08-20T09:42:05;39.30;39.70
4578;DHT22;2301;47.354;8.528;2023-08-20T09:44:34;39.60;39.40
4578;DHT22;2301;47.354;8.528;2023-08-20T09:47:02;39.80;37.90
4578;DHT22;2301;47.354;8.528;2023-08-20T09:49:35;40.00;37.70
4578;DHT22;2301;47.354;8.528;2023-08-20T09:52:05;40.00;37.60
4578;DHT22;2301;47.354;8.528;2023-08-20T09:54:45;39.80;37.60
4578;DHT22;2301;47.354;8.528;2023-08-20T09:57:23;39.40;37.80
4578;DHT22;2301;47.354;8.528;2023-08-20T09:59:53;39.30;39.00
4578;DHT22;2301;47.354;8.528;2023-08-20T10:02:20;39.20;38.90
4578;DHT22;2301;47.354;8.528;2023-08-20T10:04:47;39.10;39.20
4578;DHT22;2301;47.354;8.528;2023-08-20T10:07:16;38.90;38.10
4578;DHT22;2301;47.354;8.528;2023-08-20T10:09:43;38.70;38.60
4578;DHT22;2301;47.354;8.528;2023-08-20T10:12:12;38.70;38.90
4578;DHT22;2301;47.354;8.528;2023-08-20T10:14:41;38.70;39.10
4578;DHT22;2301;47.354;8.528;2023-08-20T10:17:08;38.90;39.00
4578;DHT22;2301;47.354;8.528;2023-08-20T10:19:36;39.10;39.20
4578;DHT22;2301;47.354;8.528;2023-08-20T10:22:04;39.30;37.60
4578;DHT22;2301;47.354;8.528;2023-08-20T10:24:40;39.60;37.70
4578;DHT22;2301;47.354;8.528;2023-08-20T10:27:09;40.00;36.50
4578;DHT22;2301;47.354;8.528;2023-08-20T10:29:40;40.00;36.60
4578;DHT22;2301;47.354;8.528;2023-08-20T10:32:09;40.10;37.50
4578;DHT22;2301;47.354;8.528;2023-08-20T10:34:37;40.20;37.10
4578;DHT22;2301;47.354;8.528;2023-08-20T10:37:12;40.20;36.70
4578;DHT22;2301;47.354;8.528;2023-08-20T10:39:41;40.00;36.60
4578;DHT22;2301;47.354;8.528;2023-08-20T10:42:11;39.60;36.90
4578;DHT22;2301;47.354;8.528;2023-08-20T10:45:09;39.50;38.20
4578;DHT22;2301;47.354;8.528;2023-08-20T10:47:44;39.60;38.50
4578;DHT22;2301;47.354;8.528;2023-08-20T10:50:16;39.70;38.60
4578;DHT22;2301;47.354;8.528;2023-08-20T10:52:47;39.70;37.70
4578;DHT22;2301;47.354;8.528;2023-08-20T10:55:15;39.80;37.30
4578;DHT22;2301;47.354;8.528;2023-08-20T10:57:42;39.80;38.20
4578;DHT22;2301;47.354;8.528;2023-08-20T11:00:15;40.10;38.20
4578;DHT22;2301;47.354;8.528;2023-08-20T11:02:43;40.50;38.00
4578;DHT22;2301;47.354;8.528;2023-08-20T11:05:20;40.90;37.40
4578;DHT22;2301;47.354;8.528;2023-08-20T11:07:49;41.00;36.60
4578;DHT22;2301;47.354;8.528;2023-08-20T11:10:19;41.10;36.30
4578;DHT22;2301;47.354;8.528;2023-08-20T11:12:49;40.90;35.40
4578;DHT22;2301;47.354;8.528;2023-08-20T11:15:17;40.70;35.40
4578;DHT22;2301;47.354;8.528;2023-08-20T11:17:46;40.50;35.40
4578;DHT22;2301;47.354;8.528;2023-08-20T11:20:15;40.10;35.50
4578;DHT22;2301;47.354;8.528;2023-08-20T11:22:46;39.70;35.60
4578;DHT22;2301;47.354;8.528;2023-08-20T11:25:16;39.40;36.00
4578;DHT22;2301;47.354;8.528;2023-08-20T11:27:47;38.90;36.50
4578;DHT22;2301;47.354;8.528;2023-08-20T11:30:17;38.80;37.70
4578;DHT22;2301;47.354;8.528;2023-08-20T11:32:44;38.80;37.40
4578;DHT22;2301;47.354;8.528;2023-08-20T11:35:12;38.90;37.30
4578;DHT22;2301;47.354;8.528;2023-08-20T11:37:41;38.90;37.00
4578;DHT22;2301;47.354;8.528;2023-08-20T11:40:12;38.90;36.70
4578;DHT22;2301;47.354;8.528;2023-08-20T11:42:42;38.90;37.00
4578;DHT22;2301;47.354;8.528;2023-08-20T11:45:11;38.90;36.80
4578;DHT22;2301;47.354;8.528;2023-08-20T11:47:43;38.80;36.10
4578;DHT22;2301;47.354;8.528;2023-08-20T11:50:13;38.80;35.30
4578;DHT22;2301;47.354;8.528;2023-08-20T11:52:41;38.80;35.60
4578;DHT22;2301;47.354;8.528;2023-08-20T11:55:08;38.70;34.50
4578;DHT22;2301;47.354;8.528;2023-08-20T11:57:35;38.60;33.30
4578;DHT22;2301;47.354;8.528;2023-08-20T12:00:04;38.60;33.00
4578;DHT22;2301;47.354;8.528;2023-08-20T12:02:34;38.70;32.90
4578;DHT22;2301;47.354;8.528;2023-08-20T12:05:02;38.70;33.10
4578;DHT22;2301;47.354;8.528;2023-08-20T12:07:29;38.60;32.20
4578;DHT22;2301;47.354;8.528;2023-08-20T12:09:56;38.40;32.80
4578;DHT22;2301;47.354;8.528;2023-08-20T12:12:23;38.30;33.90
4578;DHT22;2301;47.354;8.528;2023-08-20T12:14:50;38.30;35.20
4578;DHT22;2301;47.354;8.528;2023-08-20T12:17:17;38.30;35.90
4578;DHT22;2301;47.354;8.528;2023-08-20T12:19:45;38.30;35.70
4578;DHT22;2301;47.354;8.528;2023-08-20T12:22:14;38.30;35.80
4578;DHT22;2301;47.354;8.528;2023-08-20T12:24:41;38.40;36.30
4578;DHT22;2301;47.354;8.528;2023-08-20T12:27:07;38.30;36.40
4578;DHT22;2301;47.354;8.528;2023-08-20T12:29:34;38.30;37.20
4578;DHT22;2301;47.354;8.528;2023-08-20T12:32:01;38.30;37.50
4578;DHT22;2301;47.354;8.528;2023-08-20T12:34:32;38.20;36.80
4578;DHT22;2301;47.354;8.528;2023-08-20T12:37:00;38.20;36.80
4578;DHT22;2301;47.354;8.528;2023-08-20T12:39:29;38.20;37.20
4578;DHT22;2301;47.354;8.528;2023-08-20T12:41:55;38.20;37.70
4578;DHT22;2301;47.354;8.528;2023-08-20T12:44:22;38.10;37.60
4578;DHT22;2301;47.354;8.528;2023-08-20T12:46:50;38.10;37.70
4578;DHT22;2301;47.354;8.528;2023-08-20T12:49:16;38.10;37.70
4578;DHT22;2301;47.354;8.528;2023-08-20T12:51:43;38.10;38.20
4578;DHT22;2301;47.354;8.528;2023-08-20T12:54:10;38.00;38.20
4578;DHT22;2301;47.354;8.528;2023-08-20T12:56:40;38.00;38.20
4578;DHT22;2301;47.354;8.528;2023-08-20T12:59:09;38.10;38.30
4578;DHT22;2301;47.354;8.528;2023-08-20T13:01:36;37.90;38.00
4578;DHT22;2301;47.354;8.528;2023-08-20T13:04:04;38.00;38.20
4578;DHT22;2301;47.354;8.528;2023-08-20T13:06:31;38.00;38.30
4578;DHT22;2301;47.354;8.528;2023-08-20T13:08:59;37.90;37.50
4578;DHT22;2301;47.354;8.528;2023-08-20T13:11:28;37.90;37.70
4578;DHT22;2301;47.354;8.528;2023-08-20T13:13:58;37.90;38.20
4578;DHT22;2301;47.354;8.528;2023-08-20T13:16:25;37.90;37.00
4578;DHT22;2301;47.354;8.528;2023-08-20T13:18:53;37.80;36.80
4578;DHT22;2301;47.354;8.528;2023-08-20T13:21:20;37.80;37.20
4578;DHT22;2301;47.354;8.528;2023-08-20T13:23:47;37.80;37.40
4578;DHT22;2301;47.354;8.528;2023-08-20T13:26:14;37.80;37.30
4578;DHT22;2301;47.354;8.528;2023-08-20T13:28:41;37.80;37.80
4578;DHT22;2301;47.354;8.528;2023-08-20T13:31:09;37.90;38.20
4578;DHT22;2301;47.354;8.528;2023-08-20T13:33:36;37.90;39.30
4578;DHT22;2301;47.354;8.528;2023-08-20T13:36:03;37.80;38.90
4578;DHT22;2301;47.354;8.528;2023-08-20T13:38:30;37.80;38.30
4578;DHT22;2301;47.354;8.528;2023-08-20T13:40:57;37.80;38.80
4578;DHT22;2301;47.354;8.528;2023-08-20T13:43:24;37.80;38.60
4578;DHT22;2301;47.354;8.528;2023-08-20T13:45:51;37.70;37.40
4578;DHT22;2301;47.354;8.528;2023-08-20T13:48:20;37.70;37.60
4578;DHT22;2301;47.354;8.528;2023-08-20T13:50:47;37.70;37.00
4578;DHT22;2301;47.354;8.528;2023-08-20T13:53:14;37.70;37.70
4578;DHT22;2301;47.354;8.528;2023-08-20T13:55:41;37.60;37.80
4578;DHT22;2301;47.354;8.528;2023-08-20T13:58:08;37.50;38.10
4578;DHT22;2301;47.354;8.528;2023-08-20T14:00:35;37.50;38.30
4578;DHT22;2301;47.354;8.528;2023-08-20T14:03:02;37.40;38.20
4578;DHT22;2301;47.354;8.528;2023-08-20T14:05:31;37.30;38.30
4578;DHT22;2301;47.354;8.528;2023-08-20T14:07:58;37.30;38.70
4578;DHT22;2301;47.354;8.528;2023-08-20T14:10:25;37.30;38.80
4578;DHT22;2301;47.354;8.528;2023-08-20T14:12:51;37.30;38.60
4578;DHT22;2301;47.354;8.528;2023-08-20T14:15:18;37.30;38.80
4578;DHT22;2301;47.354;8.528;2023-08-20T14:17:45;37.30;38.40
4578;DHT22;2301;47.354;8.528;2023-08-20T14:20:12;37.30;38.90
4578;DHT22;2301;47.354;8.528;2023-08-20T14:22:41;37.20;38.80
4578;DHT22;2301;47.354;8.528;2023-08-20T14:25:08;37.20;39.70
4578;DHT22;2301;47.354;8.528;2023-08-20T14:27:35;37.20;39.00
4578;DHT22;2301;47.354;8.528;2023-08-20T14:30:02;37.10;38.90
4578;DHT22;2301;47.354;8.528;2023-08-20T14:32:30;37.10;39.80
4578;DHT22;2301;47.354;8.528;2023-08-20T14:34:57;37.10;38.80
4578;DHT22;2301;47.354;8.528;2023-08-20T14:37:24;37.10;39.60
4578;DHT22;2301;47.354;8.528;2023-08-20T14:39:52;37.10;40.30
4578;DHT22;2301;47.354;8.528;2023-08-20T14:42:19;37.10;39.70
4578;DHT22;2301;47.354;8.528;2023-08-20T14:44:46;37.20;39.10
4578;DHT22;2301;47.354;8.528;2023-08-20T14:47:13;37.10;38.90
4578;DHT22;2301;47.354;8.528;2023-08-20T14:49:40;37.20;39.60
4578;DHT22;2301;47.354;8.528;2023-08-20T14:52:07;37.20;40.30
4578;DHT22;2301;47.354;8.528;2023-08-20T14:54:34;37.20;39.60
4578;DHT22;2301;47.354;8.528;2023-08-20T14:57:02;37.30;39.80
4578;DHT22;2301;47.354;8.528;2023-08-20T14:59:29;37.30;40.00
4578;DHT22;2301;47.354;8.528;2023-08-20T15:01:56;37.30;40.10
4578;DHT22;2301;47.354;8.528;2023-08-20T15:04:23;37.20;39.50
4578;DHT22;2301;47.354;8.528;2023-08-20T15:06:50;37.20;39.70
4578;DHT22;2301;47.354;8.528;2023-08-20T15:09:17;37.20;40.00
4578;DHT22;2301;47.354;8.528;2023-08-20T15:11:46;37.20;39.70
4578;DHT22;2301;47.354;8.528;2023-08-20T15:14:14;37.20;40.40
4578;DHT22;2301;47.354;8.528;2023-08-20T15:16:41;37.20;39.20
4578;DHT22;2301;47.354;8.528;2023-08-20T15:19:08;37.20;39.70
4578;DHT22;2301;47.354;8.528;2023-08-20T15:21:35;37.10;38.50
4578;DHT22;2301;47.354;8.528;2023-08-20T15:24:02;37.10;38.60
4578;DHT22;2301;47.354;8.528;2023-08-20T15:26:30;37.00;39.40
4578;DHT22;2301;47.354;8.528;2023-08-20T15:28:57;37.00;39.50
4578;DHT22;2301;47.354;8.528;2023-08-20T15:31:25;37.00;40.60
4578;DHT22;2301;47.354;8.528;2023-08-20T15:33:54;37.00;39.40
4578;DHT22;2301;47.354;8.528;2023-08-20T15:36:21;36.90;37.50
4578;DHT22;2301;47.354;8.528;2023-08-20T15:38:48;36.80;38.70
4578;DHT22;2301;47.354;8.528;2023-08-20T15:41:15;36.80;38.00
4578;DHT22;2301;47.354;8.528;2023-08-20T15:43:41;36.70;37.00
4578;DHT22;2301;47.354;8.528;2023-08-20T15:46:08;36.70;37.80
4578;DHT22;2301;47.354;8.528;2023-08-20T15:48:37;36.60;37.70
4578;DHT22;2301;47.354;8.528;2023-08-20T15:51:04;36.60;38.50
4578;DHT22;2301;47.354;8.528;2023-08-20T15:53:31;36.60;38.70
4578;DHT22;2301;47.354;8.528;2023-08-20T15:55:58;36.70;38.70
4578;DHT22;2301;47.354;8.528;2023-08-20T15:58:25;36.70;38.80
4578;DHT22;2301;47.354;8.528;2023-08-20T16:00:52;36.70;40.50
4578;DHT22;2301;47.354;8.528;2023-08-20T16:03:19;36.70;40.10
4578;DHT22;2301;47.354;8.528;2023-08-20T16:05:47;36.70;40.20
4578;DHT22;2301;47.354;8.528;2023-08-20T16:08:14;36.70;40.90
4578;DHT22;2301;47.354;8.528;2023-08-20T16:10:42;36.70;40.00